YBIK weather

CLOSED Bindook NDB
New South Wales, Australia

Public forecast

Using degrees Celsius for public forecast. Weather courtesy of forecast.io.

METAR (pilot weather report)

Closest report is RAAF Base Richmond, 48.0 nm (89.0 km) NE. Retrieved 2019/03/26 10:00 UTC (16 minutes ago):

YSRI 261000Z AUTO 28005KT 9999 // NCD 17/11 Q1020

TAF (pilot weather forecast)

Closest forecast is RAAF Base Richmond, 48.0 nm (89.0 km) NE. Retrieved 2019/03/26 06:36 UTC (4 hours ago):

TAF YSRI 260528Z 2606/2706 15008KT CAVOK FM260900 24003KT 9999 SCT040 FM270000 12007KT 9999 -SHRA BKN030